Terminal Aerodrome Forecast
Issued by NWS Upton, NY

Home | Current Version | Previous Version | Text Only | Print | Product List | Glossary On
Versions: 1 2 3 4 5 6 7 8 9 10 11 12 13 14 15 16 17 18 19 20 21 22 23 24 25 26 27 28 29 30 31 32 33 34 35 36 37 38 39
705
FTUS41 KOKX 230233 AAB
TAFJFK
TAF AMD
KJFK 230233Z 2303/2406 06017G28KT 5SM BR OVC012
     FM231200 05025G36KT 3SM -RA BR OVC009
     FM231500 05031G47KT 1 1/2SM RA BR OVC005
     FM232100 05029G51KT 1SM +RA BR OVC005
     FM240100 04022G40KT 1 1/2SM +RA OVC004=

USA.gov is the U.S. government's official web portal to all federal, state and local government web resources and services.